Terminal Aerodrome Forecast
Issued by NWS

Home | Current Version | Previous Version | Text Only | Print | Product List | Glossary On
Versions: 1 2 3 4 5 6 7 8 9 10 11 12 13
000
FTUS41 KPBZ 282332
TAFBVI
TAF
KBVI 282332Z 2900/2924 33007KT P6SM VCTS SCT040CB SCT120
      TEMPO 2900/2902 2SM TSRA BKN040CB OVC120
     FM290200 32004KT P6SM BKN120
     FM290900 VRB03KT 4SM BR SCT100
     FM291300 02005KT P6SM SCT040
      AMD NOT SKED=

USA.gov is the U.S. government's official web portal to all federal, state and local government web resources and services.